Time;durP1;ratioP1;P1;durP2;ratioP2;P2;SDS_P1;SDS_P2;PMS_P1;PMS_P2;Temp;Humidity;BMP_temperature;BMP_pressure;BME280_temperature;BME280_humidity;BME280_pressure;Samples;Min_cycle;Max_cycle;Signal;HPM_P1;HPM_P2
2022/03/05 00:00:05;;;;;;;7.72;3.45;;;;;;;1.35;52.44;99525.16;5090460;28;20028;-63
2022/03/05 00:02:30;;;;;;;4.82;3.00;;;;;;;1.38;52.54;99536.44;5091053;28;20032;-62
2022/03/05 00:04:56;;;;;;;9.75;3.60;;;;;;;1.22;52.34;99506.44;5091217;28;20093;-64
2022/03/05 00:07:21;;;;;;;8.57;3.42;;;;;;;1.38;53.12;99536.44;5090520;28;20028;-63
2022/03/05 00:09:47;;;;;;;7.80;3.50;;;;;;;1.04;53.06;99479.97;5090477;28;20054;-63
2022/03/05 00:12:13;;;;;;;9.13;3.53;;;;;;;1.00;53.52;99491.59;5091325;28;20063;-62
2022/03/05 00:14:38;;;;;;;6.45;3.10;;;;;;;1.26;53.58;99529.97;5091077;28;20071;-62
2022/03/05 00:17:04;;;;;;;6.07;3.00;;;;;;;0.97;53.63;99490.00;5090287;28;20036;-65
2022/03/05 00:19:30;;;;;;;6.18;3.13;;;;;;;1.26;53.72;99537.88;5090545;28;20062;-63
2022/03/05 00:21:57;;;;;;;4.85;2.70;;;;;;;1.31;53.64;99529.72;5090746;28;20028;-62
2022/03/05 00:24:23;;;;;;;7.68;2.83;;;;;;;1.29;54.26;99529.81;5094504;28;20060;-64
2022/03/05 00:26:48;;;;;;;4.97;2.70;;;;;;;1.31;53.94;99521.81;5094170;28;20457;-61
2022/03/05 00:29:14;;;;;;;7.03;3.10;;;;;;;1.27;53.86;99517.59;5094300;28;20156;-64
2022/03/05 00:31:39;;;;;;;5.50;2.83;;;;;;;1.32;54.38;99510.31;5094382;28;20035;-62
2022/03/05 00:34:05;;;;;;;5.95;2.50;;;;;;;1.14;54.19;99488.31;5076502;28;20857;-63
2022/03/05 00:36:30;;;;;;;5.03;2.90;;;;;;;1.34;54.40;99523.44;5094110;28;20392;-62
2022/03/05 00:38:56;;;;;;;6.55;3.25;;;;;;;1.34;54.95;99523.44;5093894;28;20032;-63
2022/03/05 00:41:22;;;;;;;6.38;3.08;;;;;;;1.36;54.90;99529.50;5094167;28;20028;-62
2022/03/05 00:43:48;;;;;;;5.90;3.05;;;;;;;1.36;55.13;99529.50;5076102;28;20090;-63
2022/03/05 00:46:13;;;;;;;7.65;2.92;;;;;;;1.27;55.44;99522.88;5094456;28;20088;-63
2022/03/05 00:48:39;;;;;;;5.05;2.78;;;;;;;1.32;55.15;99533.22;5075331;28;20032;-62
2022/03/05 00:51:04;;;;;;;4.78;2.58;;;;;;;1.21;55.25;99516.13;5075783;28;20032;-62
2022/03/05 00:53:30;;;;;;;4.85;2.90;;;;;;;1.22;55.86;99519.59;5094063;28;20103;-63
2022/03/05 00:55:56;;;;;;;5.28;2.78;;;;;;;1.28;55.72;99535.13;5075439;28;20047;-62
2022/03/05 00:58:21;;;;;;;7.50;2.88;;;;;;;1.27;55.92;99536.94;5075379;28;20024;-63
2022/03/05 01:00:47;;;;;;;5.20;2.67;;;;;;;1.29;55.92;99535.09;5093675;28;20368;-59
2022/03/05 01:03:13;;;;;;;4.60;2.72;;;;;;;1.34;56.21;99539.28;5093539;28;20031;-62
2022/03/05 01:05:39;;;;;;;4.85;2.50;;;;;;;1.34;55.81;99536.66;5093317;28;20028;-63
2022/03/05 01:08:04;;;;;;;6.47;2.65;;;;;;;1.34;56.03;99534.00;5093269;28;20048;-61
2022/03/05 01:10:30;;;;;;;4.55;2.60;;;;;;;1.33;56.19;99537.56;5093241;28;20040;-63
2022/03/05 01:12:55;;;;;;;5.53;2.65;;;;;;;1.35;56.40;99541.00;5093067;28;20392;-63
2022/03/05 01:15:21;;;;;;;6.53;2.58;;;;;;;1.33;56.26;99540.22;5092640;28;20402;-62
2022/03/05 01:17:47;;;;;;;4.13;2.40;;;;;;;1.24;56.77;99515.13;5093878;28;20487;-62
2022/03/05 01:20:12;;;;;;;4.15;2.45;;;;;;;1.31;56.52;99528.88;5092800;28;20028;-62
2022/03/05 01:22:38;;;;;;;7.03;2.80;;;;;;;1.15;56.71;99524.31;5092799;28;20039;-61
2022/03/05 01:25:04;;;;;;;5.00;2.90;;;;;;;1.22;56.61;99524.88;5074968;28;20024;-63
2022/03/05 01:27:29;;;;;;;3.13;1.98;;;;;;;1.25;56.76;99530.88;5092164;28;20034;-62
2022/03/05 01:29:55;;;;;;;3.33;2.05;;;;;;;1.28;56.31;99528.09;5092892;28;20487;-63
2022/03/05 01:32:20;;;;;;;4.60;2.22;;;;;;;1.20;56.22;99524.94;5093542;28;20035;-61
2022/03/05 01:34:46;;;;;;;5.18;2.13;;;;;;;1.21;56.42;99526.69;5093088;28;20074;-63
2022/03/05 01:37:12;;;;;;;2.72;1.80;;;;;;;1.21;55.58;99508.22;5093121;28;20028;-62
2022/03/05 01:39:38;;;;;;;3.15;1.67;;;;;;;1.17;55.01;99522.44;5093076;28;20027;-63
2022/03/05 01:42:04;;;;;;;2.47;1.73;;;;;;;1.27;53.00;99513.19;5093437;28;20028;-62
2022/03/05 01:44:30;;;;;;;2.75;1.38;;;;;;;1.23;53.52;99527.47;5091583;28;20495;-62
2022/03/05 01:47:00;;;;;;;2.67;1.30;;;;;;;1.24;53.05;99526.53;5092064;28;20036;-62
2022/03/05 01:49:25;;;;;;;3.60;1.60;;;;;;;1.17;53.27;99522.44;5092579;28;20039;-62
2022/03/05 01:51:51;;;;;;;2.38;1.30;;;;;;;1.11;53.22;99523.63;5092362;28;20032;-60
2022/03/05 01:54:16;;;;;;;4.50;1.45;;;;;;;1.19;53.49;99530.31;5092486;28;20020;-63
2022/03/05 01:56:43;;;;;;;2.58;1.52;;;;;;;1.22;53.92;99536.31;5092211;28;20035;-62
2022/03/05 01:59:10;;;;;;;2.88;1.60;;;;;;;1.27;53.64;99528.16;5092524;28;20113;-62
2022/03/05 02:01:35;;;;;;;2.25;1.42;;;;;;;1.28;53.97;99525.47;5092038;28;20085;-62
2022/03/05 02:04:02;;;;;;;2.72;1.65;;;;;;;1.32;53.62;99522.69;5073563;28;20419;-63
2022/03/05 02:06:28;;;;;;;4.50;1.58;;;;;;;1.34;54.21;99534.88;5091779;28;20054;-63
2022/03/05 02:08:57;;;;;;;3.95;1.90;;;;;;;1.37;54.14;99532.09;5092398;28;20067;-62
2022/03/05 02:11:23;;;;;;;3.08;1.65;;;;;;;1.36;54.33;99542.69;5092152;28;20032;-61
2022/03/05 02:13:49;;;;;;;4.30;1.65;;;;;;;1.05;54.23;99484.34;5092205;28;20024;-61
2022/03/05 02:16:14;;;;;;;2.30;1.80;;;;;;;1.38;54.98;99539.06;5092317;28;20047;-63
2022/03/05 02:18:52;;;;;;;2.95;1.48;;;;;;;1.46;54.10;99540.47;5092795;28;20635;-63
2022/03/05 02:21:18;;;;;;;2.10;1.60;;;;;;;1.35;54.30;99533.06;5073794;28;20032;-65
2022/03/05 02:23:44;;;;;;;2.03;1.33;;;;;;;1.36;54.37;99527.75;5073501;28;20032;-63
2022/03/05 02:26:10;;;;;;;2.47;1.60;;;;;;;1.41;54.75;99536.28;5091818;28;20024;-63
2022/03/05 02:28:37;;;;;;;2.47;1.58;;;;;;;1.46;54.61;99543.13;5092040;28;20032;-64
2022/03/05 02:31:04;;;;;;;2.08;1.50;;;;;;;1.45;54.34;99537.00;5092097;28;20050;-64
2022/03/05 02:33:29;;;;;;;2.85;1.50;;;;;;;1.43;54.58;99537.06;5091885;28;20024;-64
2022/03/05 02:35:55;;;;;;;2.05;1.50;;;;;;;1.36;54.76;99518.97;5091979;28;20070;-63
2022/03/05 02:38:22;;;;;;;2.33;1.50;;;;;;;1.40;54.91;99536.34;5091571;28;20044;-64
2022/03/05 02:40:49;;;;;;;3.95;1.33;;;;;;;1.35;54.45;99546.25;5092519;28;20430;-64
2022/03/05 02:43:15;;;;;;;2.10;1.60;;;;;;;1.33;54.34;99541.06;5090651;28;20111;-62
2022/03/05 02:45:41;;;;;;;3.20;1.65;;;;;;;1.20;54.55;99527.59;5091209;28;20058;-62
2022/03/05 02:48:12;;;;;;;2.08;1.50;;;;;;;1.31;54.78;99536.78;5073718;28;20056;-64
2022/03/05 02:50:39;;;;;;;2.28;1.20;;;;;;;1.26;54.08;99540.50;5091123;28;20039;-62
2022/03/05 02:53:04;;;;;;;2.08;1.38;;;;;;;1.24;54.52;99539.72;5091060;28;20404;-63
2022/03/05 02:55:30;;;;;;;1.58;1.35;;;;;;;1.23;53.93;99542.41;5090598;28;20499;-63
2022/03/05 02:57:56;;;;;;;1.90;1.20;;;;;;;1.24;53.69;99544.13;5090905;28;20357;-62
2022/03/05 03:00:21;;;;;;;1.80;1.40;;;;;;;1.25;53.94;99546.72;5091212;28;20513;-62
2022/03/05 03:02:49;;;;;;;3.88;1.40;;;;;;;1.29;52.64;99542.13;5090505;28;20115;-62
2022/03/05 03:05:16;;;;;;;3.03;1.17;;;;;;;1.16;52.30;99530.47;5069848;28;20028;-62
2022/03/05 03:07:43;;;;;;;2.58;1.20;;;;;;;1.16;52.74;99544.47;5090854;28;20034;-63
2022/03/05 03:10:10;;;;;;;1.88;1.20;;;;;;;1.12;52.68;99535.00;5090332;28;20039;-63
2022/03/05 03:12:37;;;;;;;1.63;1.17;;;;;;;1.19;52.76;99556.69;5072787;28;20119;-63
2022/03/05 03:15:04;;;;;;;2.05;1.20;;;;;;;1.26;51.84;99545.78;5090121;28;20035;-63
2022/03/05 03:17:38;;;;;;;2.10;1.10;;;;;;;1.16;52.48;99541.84;5090043;28;20456;-64
2022/03/05 03:20:04;;;;;;;2.10;1.20;;;;;;;1.16;51.98;99547.13;5090790;28;20028;-62
2022/03/05 03:22:29;;;;;;;1.38;0.95;;;;;;;1.10;51.75;99548.28;5090335;28;20028;-64
2022/03/05 03:24:55;;;;;;;1.23;0.90;;;;;;;1.06;51.71;99545.84;5090257;28;20024;-61
2022/03/05 03:27:20;;;;;;;2.45;1.17;;;;;;;1.04;52.44;99551.16;5091205;28;20032;-63
2022/03/05 03:29:47;;;;;;;2.20;1.30;;;;;;;1.04;54.07;99558.25;5090843;28;20040;-63
2022/03/05 03:32:12;;;;;;;2.25;1.40;;;;;;;0.98;54.90;99557.59;5090962;28;20047;-62
2022/03/05 03:34:38;;;;;;;2.35;1.50;;;;;;;1.00;55.11;99561.03;5090852;28;20451;-61
2022/03/05 03:37:04;;;;;;;4.80;1.50;;;;;;;0.98;55.57;99565.50;5091449;28;20129;-62
2022/03/05 03:39:29;;;;;;;4.00;1.60;;;;;;;0.94;55.63;99574.47;5090753;28;20529;-62
2022/03/05 03:41:55;;;;;;;3.20;1.45;;;;;;;0.91;56.17;99565.84;5091012;28;20036;-61
2022/03/05 03:44:20;;;;;;;3.17;1.50;;;;;;;0.93;55.84;99572.75;5091020;28;20030;-62
2022/03/05 03:46:46;;;;;;;4.32;1.55;;;;;;;0.89;56.19;99570.34;5091009;28;20115;-63
2022/03/05 03:49:12;;;;;;;4.78;1.70;;;;;;;0.95;55.77;99575.31;5090680;28;20491;-62
2022/03/05 03:51:37;;;;;;;3.65;1.40;;;;;;;0.94;55.47;99582.38;5090395;28;20130;-62
2022/03/05 03:54:03;;;;;;;2.63;1.35;;;;;;;0.88;55.77;99587.06;5091294;28;20020;-62
2022/03/05 03:56:28;;;;;;;2.92;1.52;;;;;;;0.83;55.68;99588.09;5090891;28;20385;-65
2022/03/05 03:58:54;;;;;;;2.28;1.35;;;;;;;0.76;55.83;99584.03;5093839;28;20365;-65
2022/03/05 04:01:19;;;;;;;2.55;1.38;;;;;;;0.74;55.71;99590.31;5094475;28;20103;-62
2022/03/05 04:03:45;;;;;;;6.95;1.65;;;;;;;0.72;55.31;99590.38;5095366;28;20031;-62
2022/03/05 04:06:10;;;;;;;2.75;1.60;;;;;;;0.70;55.26;99586.94;5076752;28;20056;-63
2022/03/05 04:08:41;;;;;;;3.03;1.60;;;;;;;0.67;55.30;99593.19;5094344;28;20085;-64
2022/03/05 04:11:12;;;;;;;1.85;1.15;;;;;;;0.73;54.48;99596.53;5094494;28;20576;-63
2022/03/05 04:13:38;;;;;;;2.10;1.30;;;;;;;0.64;54.12;99589.88;5076787;28;20113;-63
2022/03/05 04:16:04;;;;;;;2.03;1.30;;;;;;;0.68;54.47;99596.72;5094493;28;20036;-61
2022/03/05 04:18:29;;;;;;;3.22;1.30;;;;;;;0.65;53.36;99588.94;5094035;28;20134;-61
2022/03/05 04:20:55;;;;;;;2.03;1.20;;;;;;;0.57;53.96;99610.34;5094338;28;20081;-62
2022/03/05 04:23:21;;;;;;;2.92;1.27;;;;;;;0.52;54.39;99607.06;5094765;28;20069;-63
2022/03/05 04:25:46;;;;;;;2.53;1.15;;;;;;;0.54;53.93;99613.13;5094659;28;20028;-62
2022/03/05 04:28:12;;;;;;;3.00;1.25;;;;;;;0.49;54.18;99599.28;5093641;28;20461;-63
2022/03/05 04:30:37;;;;;;;3.58;1.65;;;;;;;0.57;54.27;99615.63;5094017;28;20039;-64
2022/03/05 04:33:03;;;;;;;3.03;1.40;;;;;;;0.54;53.83;99613.13;5094507;28;20032;-63
2022/03/05 04:35:28;;;;;;;1.63;1.23;;;;;;;0.61;53.64;99619.81;5076573;28;20024;-62
2022/03/05 04:37:54;;;;;;;2.33;1.30;;;;;;;0.34;54.15;99584.97;5094014;28;20024;-64
2022/03/05 04:40:19;;;;;;;4.78;1.25;;;;;;;0.59;53.95;99626.94;5094026;28;20030;-62
2022/03/05 04:42:45;;;;;;;3.63;1.30;;;;;;;0.65;54.14;99631.94;5094064;28;20469;-63
2022/03/05 04:45:10;;;;;;;2.70;1.30;;;;;;;0.61;53.64;99634.78;5094043;28;20020;-64
2022/03/05 04:47:37;;;;;;;1.92;1.55;;;;;;;0.53;54.25;99637.75;5093736;28;20101;-63
2022/03/05 04:50:07;;;;;;;2.65;1.45;;;;;;;0.45;54.39;99635.44;5093589;28;20028;-62
2022/03/05 04:52:33;;;;;;;1.60;1.23;;;;;;;0.40;54.75;99632.97;5093592;28;20106;-63
2022/03/05 04:54:58;;;;;;;2.22;1.40;;;;;;;0.53;54.27;99640.38;5093712;28;20080;-62
2022/03/05 04:57:24;;;;;;;4.60;1.50;;;;;;;0.46;53.78;99625.72;5093585;28;20035;-64
2022/03/05 04:59:51;;;;;;;2.45;1.40;;;;;;;0.56;53.70;99632.34;5093597;28;20529;-64
2022/03/05 05:02:17;;;;;;;2.70;1.27;;;;;;;0.54;53.45;99639.47;5093789;28;20081;-60
2022/03/05 05:04:42;;;;;;;2.22;1.20;;;;;;;0.46;53.29;99642.41;5093530;28;20384;-63
2022/03/05 05:07:08;;;;;;;2.13;1.40;;;;;;;0.47;53.24;99638.84;5092949;28;20020;-63
2022/03/05 05:09:33;;;;;;;2.10;1.02;;;;;;;0.56;53.14;99653.41;5073587;28;20071;-64
2022/03/05 05:11:59;;;;;;;2.10;1.50;;;;;;;0.58;53.23;99648.94;5093444;28;20039;-63
2022/03/05 05:14:24;;;;;;;3.00;1.35;;;;;;;0.63;52.91;99652.22;5092823;28;20043;-63
2022/03/05 05:16:50;;;;;;;2.60;1.25;;;;;;;0.68;52.58;99660.78;5093350;28;20028;-63
2022/03/05 05:19:24;;;;;;;3.17;1.50;;;;;;;0.46;52.51;99613.44;5093265;28;20089;-62
2022/03/05 05:21:50;;;;;;;2.03;1.48;;;;;;;0.63;52.62;99656.66;5092976;28;20039;-63
2022/03/05 05:24:16;;;;;;;2.97;1.50;;;;;;;0.58;53.14;99664.75;5092777;28;20024;-62
2022/03/05 05:26:41;;;;;;;3.80;1.48;;;;;;;0.52;53.19;99665.00;5093118;28;20036;-63
2022/03/05 05:29:07;;;;;;;2.63;1.77;;;;;;;0.41;53.51;99653.13;5093006;28;20067;-63
2022/03/05 05:31:32;;;;;;;2.15;1.42;;;;;;;0.47;53.24;99661.69;5093274;28;20028;-62
2022/03/05 05:33:58;;;;;;;3.45;1.75;;;;;;;0.51;53.24;99660.66;5093643;28;20545;-63
2022/03/05 05:36:23;;;;;;;5.18;2.20;;;;;;;0.51;53.85;99668.56;5092797;28;20028;-62
2022/03/05 05:38:49;;;;;;;3.25;1.80;;;;;;;0.56;54.56;99663.97;5093274;28;20059;-65
2022/03/05 05:41:16;;;;;;;3.10;1.73;;;;;;;0.62;53.60;99662.84;5075288;28;20469;-64
2022/03/05 05:43:42;;;;;;;4.18;2.03;;;;;;;0.74;53.10;99659.69;5092743;28;20035;-64
2022/03/05 05:46:07;;;;;;;5.32;2.00;;;;;;;0.66;53.65;99648.63;5092758;28;20051;-65
2022/03/05 05:48:33;;;;;;;4.50;2.20;;;;;;;0.71;53.14;99673.84;5074857;28;20035;-69
2022/03/05 05:50:58;;;;;;;3.03;1.77;;;;;;;0.61;53.74;99661.97;5093234;28;20051;-72
2022/03/05 05:53:25;;;;;;;3.50;2.00;;;;;;;0.71;53.56;99658.03;5092222;28;20115;-66
2022/03/05 05:55:53;;;;;;;4.22;2.22;;;;;;;0.91;53.10;99674.75;5092613;28;20032;-73
2022/03/05 05:58:20;;;;;;;6.20;2.00;;;;;;;1.13;52.70;99664.16;5074668;28;20031;-64
2022/03/05 06:00:46;;;;;;;3.60;1.88;;;;;;;1.22;52.23;99667.31;5093005;28;20019;-66
2022/03/05 06:03:11;;;;;;;3.95;2.22;;;;;;;1.34;51.67;99676.44;5092179;28;20393;-66
2022/03/05 06:05:37;;;;;;;7.30;2.10;;;;;;;1.34;51.73;99676.44;5074205;28;20032;-63
2022/03/05 06:08:02;;;;;;;3.15;1.70;;;;;;;1.38;51.62;99683.28;5092747;28;20089;-63
2022/03/05 06:10:28;;;;;;;5.03;1.90;;;;;;;1.36;51.77;99659.63;5092035;28;20146;-66
2022/03/05 06:12:54;;;;;;;8.70;2.20;;;;;;;1.37;51.69;99684.22;5091299;28;20032;-66
2022/03/05 06:15:20;;;;;;;3.85;1.88;;;;;;;1.19;51.76;99678.81;5073437;28;20634;-63
2022/03/05 06:17:45;;;;;;;6.78;2.00;;;;;;;0.99;52.04;99634.91;5092268;28;20257;-65
2022/03/05 06:20:11;;;;;;;3.30;2.00;;;;;;;1.50;51.74;99674.84;5092167;28;20035;-64
2022/03/05 06:22:37;;;;;;;3.78;2.10;;;;;;;2.41;49.80;99682.91;5092222;28;20755;-65
2022/03/05 06:25:04;;;;;;;5.97;2.47;;;;;;;3.87;46.54;99664.78;5092228;28;20024;-65
2022/03/05 06:27:30;;;;;;;2.55;1.88;;;;;;;4.57;43.46;99678.53;5092239;28;20103;-65
2022/03/05 06:29:55;;;;;;;3.45;2.03;;;;;;;4.43;43.66;99676.69;5092596;28;20330;-66
2022/03/05 06:32:21;;;;;;;5.40;2.38;;;;;;;4.22;44.42;99673.47;5091751;28;20028;-65
2022/03/05 06:34:46;;;;;;;10.57;1.88;;;;;;;3.61;44.92;99636.22;5091805;28;20024;-65
2022/03/05 06:37:12;;;;;;;3.92;1.95;;;;;;;3.50;46.00;99669.44;5073492;28;20036;-66
2022/03/05 06:39:37;;;;;;;3.30;2.05;;;;;;;3.48;45.78;99663.38;5092162;28;20404;-65
2022/03/05 06:42:03;;;;;;;4.43;2.13;;;;;;;3.62;45.70;99665.25;5091005;28;20468;-65
2022/03/05 06:44:31;;;;;;;4.10;2.00;;;;;;;3.92;44.60;99683.06;5090855;28;20027;-67
2022/03/05 06:46:57;;;;;;;4.68;2.55;;;;;;;3.87;44.54;99669.22;5072727;28;20031;-66
2022/03/05 06:49:23;;;;;;;5.18;2.85;;;;;;;3.31;45.34;99651.03;5091058;28;20035;-66
2022/03/05 06:51:48;;;;;;;4.22;2.15;;;;;;;3.58;46.01;99688.41;5091048;28;20107;-64
2022/03/05 06:54:14;;;;;;;4.93;2.40;;;;;;;3.52;45.28;99701.97;5090624;28;20119;-65
2022/03/05 06:56:39;;;;;;;5.72;2.53;;;;;;;3.62;45.82;99704.13;5091137;28;20111;-65
2022/03/05 06:59:05;;;;;;;4.35;2.50;;;;;;;3.76;44.79;99696.28;5091260;28;20024;-64
2022/03/05 07:01:31;;;;;;;4.38;2.22;;;;;;;4.63;43.11;99690.59;5090957;28;20084;-66
2022/03/05 07:03:56;;;;;;;5.30;2.40;;;;;;;6.28;39.73;99700.94;5091138;28;20424;-66
2022/03/05 07:06:22;;;;;;;3.42;2.03;;;;;;;7.11;37.45;99690.19;5090766;28;20366;-66
2022/03/05 07:08:47;;;;;;;2.47;2.05;;;;;;;7.89;36.38;99670.53;5090739;28;20157;-66
2022/03/05 07:11:13;;;;;;;3.85;2.47;;;;;;;10.89;31.54;99689.38;5091081;28;20521;-66
2022/03/05 07:13:38;;;;;;;5.05;2.70;;;;;;;14.68;25.77;99670.94;5090825;28;20032;-66
2022/03/05 07:16:05;;;;;;;7.35;3.10;;;;;;;17.37;22.44;99686.03;5090830;28;20043;-67
2022/03/05 07:18:30;;;;;;;9.55;2.97;;;;;;;19.54;19.67;99687.34;5091401;28;20461;-64
2022/03/05 07:20:57;;;;;;;6.32;3.55;;;;;;;21.00;17.97;99684.91;5090516;28;20032;-65
2022/03/05 07:23:23;;;;;;;7.07;3.17;;;;;;;21.08;17.52;99696.50;5090466;28;20020;-66
2022/03/05 07:25:48;;;;;;;4.50;2.83;;;;;;;20.16;17.72;99685.25;5090952;28;20032;-65
2022/03/05 07:28:14;;;;;;;11.32;2.35;;;;;;;21.31;16.51;99676.38;5073123;28;20446;-66
2022/03/05 07:30:39;;;;;;;6.13;2.35;;;;;;;20.63;16.80;99671.34;5090514;28;20034;-66
2022/03/05 07:33:05;;;;;;;5.85;2.42;;;;;;;18.09;18.74;99676.22;5090281;28;20036;-58
2022/03/05 07:35:31;;;;;;;8.30;2.38;;;;;;;16.40;20.71;99689.34;5091384;28;20465;-62
2022/03/05 07:37:56;;;;;;;4.13;2.45;;;;;;;15.13;22.31;99696.13;5090847;28;20027;-64
2022/03/05 07:40:22;;;;;;;3.22;2.63;;;;;;;13.85;23.46;99686.22;5090234;28;20040;-66
2022/03/05 07:42:47;;;;;;;6.00;2.50;;;;;;;13.57;24.11;99682.63;5090746;28;20080;-64
2022/03/05 07:45:13;;;;;;;5.68;2.50;;;;;;;14.47;23.47;99698.19;5073351;28;20020;-65
2022/03/05 07:47:38;;;;;;;5.05;2.38;;;;;;;15.33;21.93;99698.63;5091038;28;20020;-66
2022/03/05 07:50:05;;;;;;;6.43;2.50;;;;;;;14.58;22.40;99692.56;5090429;28;20135;-65
2022/03/05 07:52:30;;;;;;;7.03;3.20;;;;;;;12.95;24.43;99683.88;5090912;28;20070;-66
2022/03/05 07:54:56;;;;;;;7.30;2.83;;;;;;;11.17;26.88;99709.31;5073204;28;20444;-67
2022/03/05 07:57:21;;;;;;;7.80;2.92;;;;;;;9.93;28.62;99694.50;5090205;28;20115;-67
2022/03/05 07:59:47;;;;;;;5.15;2.47;;;;;;;9.13;29.85;99686.41;5090369;28;20189;-65
2022/03/05 08:02:15;;;;;;;3.65;2.28;;;;;;;8.48;30.48;99670.75;5090680;28;20034;-64
2022/03/05 08:04:47;;;;;;;7.65;2.42;;;;;;;8.12;30.68;99702.69;5091226;28;20028;-66
2022/03/05 08:07:13;;;;;;;5.95;2.30;;;;;;;7.80;31.34;99694.31;5091029;28;20028;-65
2022/03/05 08:09:41;;;;;;;5.38;2.10;;;;;;;7.64;31.21;99692.75;5072618;28;20048;-66
2022/03/05 08:12:07;;;;;;;6.85;1.77;;;;;;;7.56;31.79;99697.75;5090784;28;20035;-65
2022/03/05 08:14:32;;;;;;;5.90;2.28;;;;;;;7.59;31.97;99701.06;5072740;28;20032;-66
2022/03/05 08:16:57;;;;;;;4.57;2.13;;;;;;;7.59;31.58;99697.53;5091181;28;20024;-66
2022/03/05 08:19:23;;;;;;;2.33;1.67;;;;;;;7.50;31.66;99698.19;5090536;28;20107;-65
2022/03/05 08:21:49;;;;;;;4.88;1.70;;;;;;;7.17;32.14;99706.63;5072455;28;20032;-66
2022/03/05 08:24:14;;;;;;;8.18;2.22;;;;;;;6.34;33.80;99714.78;5091314;28;20020;-67
2022/03/05 08:26:40;;;;;;;8.43;3.42;;;;;;;5.57;34.99;99698.28;5073199;28;20069;-65
2022/03/05 08:29:05;;;;;;;4.25;2.25;;;;;;;5.14;35.90;99720.28;5090290;28;20028;-65
2022/03/05 08:31:31;;;;;;;7.95;2.35;;;;;;;4.66;36.77;99719.59;5090345;28;20039;-65
2022/03/05 08:33:58;;;;;;;5.47;1.90;;;;;;;4.21;37.94;99727.44;5091122;28;20091;-65
2022/03/05 08:36:24;;;;;;;3.53;1.98;;;;;;;3.82;38.66;99727.72;5090549;28;20115;-65
2022/03/05 08:38:50;;;;;;;2.80;1.92;;;;;;;3.67;39.45;99728.56;5072111;28;20114;-64
2022/03/05 08:41:16;;;;;;;6.13;2.08;;;;;;;3.56;39.37;99737.94;5090428;28;20503;-65
2022/03/05 08:43:42;;;;;;;4.13;2.05;;;;;;;3.28;39.42;99702.31;5091394;28;20059;-66
2022/03/05 08:46:09;;;;;;;5.63;1.98;;;;;;;3.35;40.17;99736.41;5094540;28;20063;-66
2022/03/05 08:48:34;;;;;;;4.55;2.15;;;;;;;2.92;40.32;99674.22;5075874;28;20020;-66
2022/03/05 08:51:00;;;;;;;2.08;1.80;;;;;;;3.11;40.74;99734.97;5094223;28;20555;-66
2022/03/05 08:53:26;;;;;;;7.50;2.22;;;;;;;3.19;40.71;99739.88;5094362;28;20175;-66
2022/03/05 08:55:51;;;;;;;5.50;2.33;;;;;;;3.19;40.92;99745.16;5094015;28;20020;-64
2022/03/05 08:58:18;;;;;;;3.88;2.28;;;;;;;3.26;41.08;99733.31;5094078;28;20480;-65
2022/03/05 09:00:43;;;;;;;4.80;2.65;;;;;;;3.33;40.30;99731.22;5094252;28;20031;-66
2022/03/05 09:03:09;;;;;;;3.05;1.95;;;;;;;3.43;40.55;99711.25;5093702;28;20032;-66
2022/03/05 09:05:34;;;;;;;4.30;2.20;;;;;;;3.96;39.69;99736.72;5075635;28;20028;-64
2022/03/05 09:08:00;;;;;;;4.47;2.30;;;;;;;4.02;39.16;99739.03;5093673;28;20054;-65
2022/03/05 09:10:25;;;;;;;5.13;2.20;;;;;;;3.98;39.60;99726.91;5093634;28;20055;-67
2022/03/05 09:12:51;;;;;;;12.32;2.92;;;;;;;3.96;39.14;99734.09;5093476;28;20481;-65
2022/03/05 09:15:16;;;;;;;6.28;2.50;;;;;;;3.89;38.83;99730.91;5094128;28;20036;-65
2022/03/05 09:17:42;;;;;;;4.97;1.88;;;;;;;4.12;38.61;99745.56;5093846;28;20112;-65
2022/03/05 09:20:10;;;;;;;7.03;2.13;;;;;;;4.13;38.63;99741.97;5093720;28;20172;-64
2022/03/05 09:22:36;;;;;;;4.25;1.45;;;;;;;4.19;38.00;99739.91;5075765;28;20464;-64
2022/03/05 09:25:02;;;;;;;5.80;1.60;;;;;;;4.16;37.57;99746.22;5093676;28;20043;-67
2022/03/05 09:27:29;;;;;;;3.47;1.60;;;;;;;3.87;38.70;99738.09;5093196;28;20032;-66
2022/03/05 09:29:55;;;;;;;4.80;1.83;;;;;;;3.70;39.02;99742.47;5093434;28;20028;-65
2022/03/05 09:32:20;;;;;;;6.95;1.90;;;;;;;3.62;38.94;99757.06;5093743;28;20063;-66
2022/03/05 09:34:46;;;;;;;3.30;1.45;;;;;;;3.42;39.71;99761.63;5093142;28;20070;-66
2022/03/05 09:37:12;;;;;;;4.25;1.42;;;;;;;3.05;39.79;99727.34;5093305;28;20020;-65
2022/03/05 09:39:37;;;;;;;3.13;1.48;;;;;;;3.12;39.99;99760.47;5093420;28;20072;-66
2022/03/05 09:42:06;;;;;;;5.60;1.77;;;;;;;3.00;40.62;99761.94;5075285;28;20039;-66
2022/03/05 09:44:32;;;;;;;3.35;1.70;;;;;;;2.92;40.76;99769.44;5092863;28;20078;-67
2022/03/05 09:47:00;;;;;;;2.88;1.95;;;;;;;2.94;41.28;99767.56;5092764;28;20111;-66
2022/03/05 09:49:27;;;;;;;4.82;2.60;;;;;;;2.96;40.83;99755.09;5093455;28;20032;-67
2022/03/05 09:51:53;;;;;;;8.50;2.08;;;;;;;2.87;40.70;99729.97;5093385;28;20039;-65
2022/03/05 09:54:19;;;;;;;2.88;2.22;;;;;;;3.20;40.14;99775.09;5092629;28;20146;-65
2022/03/05 09:56:45;;;;;;;5.57;2.10;;;;;;;3.34;40.51;99775.25;5073968;28;20051;-64
2022/03/05 09:59:11;;;;;;;2.75;1.88;;;;;;;3.35;40.28;99784.91;5093324;28;20032;-65
2022/03/05 10:01:38;;;;;;;8.02;2.80;;;;;;;3.37;40.34;99783.03;5093221;28;20043;-65
2022/03/05 10:04:04;;;;;;;4.70;2.38;;;;;;;3.39;40.49;99778.53;5092498;28;20032;-67
2022/03/05 10:06:30;;;;;;;8.52;2.33;;;;;;;3.44;40.75;99787.06;5092576;28;20542;-65
2022/03/05 10:08:56;;;;;;;6.53;2.20;;;;;;;3.49;40.92;99789.50;5093052;28;20197;-64
2022/03/05 10:11:23;;;;;;;3.90;1.80;;;;;;;3.34;40.96;99784.97;5093051;28;20127;-64
2022/03/05 10:13:49;;;;;;;3.55;1.70;;;;;;;3.12;41.17;99784.28;5092078;28;20032;-64
2022/03/05 10:16:31;;;;;;;3.22;1.92;;;;;;;3.02;41.40;99780.41;5092611;28;20039;-65
2022/03/05 10:19:14;;;;;;;3.17;2.08;;;;;;;2.91;42.05;99786.22;5092999;28;20032;-65
2022/03/05 10:21:39;;;;;;;3.60;2.15;;;;;;;2.84;41.98;99782.16;5092883;28;20027;-66
2022/03/05 10:24:09;;;;;;;2.92;1.98;;;;;;;2.83;41.86;99788.38;5092170;28;20031;-65
2022/03/05 10:26:55;;;;;;;3.25;2.03;;;;;;;2.84;41.53;99790.97;5092271;28;20031;-65
2022/03/05 10:29:22;;;;;;;2.78;2.03;;;;;;;2.86;42.05;99790.88;5092720;28;20117;-64
2022/03/05 10:32:05;;;;;;;6.95;2.13;;;;;;;2.80;41.44;99754.16;5092272;28;20035;-64
2022/03/05 10:34:50;;;;;;;4.57;1.70;;;;;;;3.09;41.92;99797.66;5091933;28;20038;-65
2022/03/05 10:37:17;;;;;;;2.72;1.70;;;;;;;3.22;41.44;99771.44;5092102;28;20077;-67
2022/03/05 10:39:42;;;;;;;3.15;1.50;;;;;;;3.30;40.90;99801.00;5091706;28;20028;-65
2022/03/05 10:42:25;;;;;;;4.80;1.88;;;;;;;3.33;41.44;99788.56;5092020;28;20107;-65
2022/03/05 10:45:06;;;;;;;4.75;1.83;;;;;;;3.20;41.32;99790.97;5091788;28;20039;-65
2022/03/05 10:47:39;;;;;;;4.28;2.10;;;;;;;3.20;41.63;99790.97;5091811;28;20469;-66
2022/03/05 10:50:06;;;;;;;5.78;2.05;;;;;;;3.14;42.25;99803.59;5091412;28;20032;-65
2022/03/05 10:52:56;;;;;;;3.33;2.08;;;;;;;3.13;42.16;99799.22;5091665;28;20024;-66
2022/03/05 10:55:26;;;;;;;4.45;2.08;;;;;;;3.13;42.12;99793.06;5092069;28;20038;-64
2022/03/05 10:58:14;;;;;;;5.40;1.98;;;;;;;2.99;42.40;99793.75;5091473;28;20071;-66
2022/03/05 11:00:45;;;;;;;4.15;1.98;;;;;;;2.92;43.28;99785.28;5091568;28;20038;-67
2022/03/05 11:03:11;;;;;;;3.78;2.20;;;;;;;2.93;42.42;99796.72;5091741;28;20845;-65
2022/03/05 11:05:38;;;;;;;3.15;2.50;;;;;;;3.01;42.79;99774.25;5091762;28;20039;-66
2022/03/05 11:08:06;;;;;;;4.97;2.15;;;;;;;3.14;42.39;99792.16;5073452;28;20075;-65
2022/03/05 11:10:31;;;;;;;6.38;2.50;;;;;;;3.22;42.60;99778.53;5091732;28;20119;-65
2022/03/05 11:13:00;;;;;;;3.47;2.10;;;;;;;3.44;41.89;99786.22;5090909;28;20111;-65
2022/03/05 11:15:27;;;;;;;2.95;2.03;;;;;;;3.53;41.49;99780.44;5091251;28;20028;-64
2022/03/05 11:17:53;;;;;;;3.10;1.67;;;;;;;3.40;41.07;99776.75;5091542;28;20052;-65
2022/03/05 11:20:19;;;;;;;3.78;1.85;;;;;;;3.23;40.98;99767.88;5091481;28;20024;-64
2022/03/05 11:22:49;;;;;;;2.97;1.88;;;;;;;3.03;41.73;99791.81;5091067;28;20454;-67
2022/03/05 11:25:18;;;;;;;3.05;1.85;;;;;;;2.88;42.00;99791.63;5091500;28;20032;-66
2022/03/05 11:28:00;;;;;;;3.17;2.08;;;;;;;2.90;42.57;99797.75;5091557;28;20388;-66
2022/03/05 11:30:27;;;;;;;4.78;2.13;;;;;;;2.87;42.51;99803.16;5072997;28;20132;-65
2022/03/05 11:32:53;;;;;;;3.92;2.00;;;;;;;2.76;42.56;99787.81;5090879;28;20448;-67
2022/03/05 11:35:28;;;;;;;4.43;2.42;;;;;;;2.83;42.96;99802.47;5092100;28;20063;-64
2022/03/05 11:37:54;;;;;;;4.72;2.45;;;;;;;2.56;42.93;99794.06;5091578;28;20085;-67